sensor_id;sensor_type;location;lat;lon;timestamp;temperature;humidity
22738;DHT22;11536;50.860;4.286;2023-07-28T00:01:56;19.10;99.90
22738;DHT22;11536;50.860;4.286;2023-07-28T00:04:21;19.10;99.90
22738;DHT22;11536;50.860;4.286;2023-07-28T00:06:47;19.10;99.90
22738;DHT22;11536;50.860;4.286;2023-07-28T00:09:12;19.10;99.90
22738;DHT22;11536;50.860;4.286;2023-07-28T00:11:38;19.20;99.90
22738;DHT22;11536;50.860;4.286;2023-07-28T00:14:04;19.20;99.90
22738;DHT22;11536;50.860;4.286;2023-07-28T00:16:29;19.10;99.90
22738;DHT22;11536;50.860;4.286;2023-07-28T00:18:55;19.10;99.90
22738;DHT22;11536;50.860;4.286;2023-07-28T00:21:20;19.10;99.90
22738;DHT22;11536;50.860;4.286;2023-07-28T00:23:46;19.20;99.90
22738;DHT22;11536;50.860;4.286;2023-07-28T00:26:11;19.20;99.90
22738;DHT22;11536;50.860;4.286;2023-07-28T00:28:37;19.20;99.90
22738;DHT22;11536;50.860;4.286;2023-07-28T00:31:03;19.20;99.90
22738;DHT22;11536;50.860;4.286;2023-07-28T00:33:28;19.20;99.90
22738;DHT22;11536;50.860;4.286;2023-07-28T00:35:54;19.20;99.90
22738;DHT22;11536;50.860;4.286;2023-07-28T00:38:19;19.20;99.90
22738;DHT22;11536;50.860;4.286;2023-07-28T00:40:45;19.20;99.90
22738;DHT22;11536;50.860;4.286;2023-07-28T00:43:10;19.20;99.90
22738;DHT22;11536;50.860;4.286;2023-07-28T00:45:36;19.20;99.90
22738;DHT22;11536;50.860;4.286;2023-07-28T00:48:02;19.20;99.90
22738;DHT22;11536;50.860;4.286;2023-07-28T00:50:29;19.20;99.90
22738;DHT22;11536;50.860;4.286;2023-07-28T00:52:55;19.20;99.90
22738;DHT22;11536;50.860;4.286;2023-07-28T00:55:21;19.20;99.90
22738;DHT22;11536;50.860;4.286;2023-07-28T00:57:47;19.20;99.90
22738;DHT22;11536;50.860;4.286;2023-07-28T01:00:13;19.20;99.90
22738;DHT22;11536;50.860;4.286;2023-07-28T01:02:39;19.20;99.90
22738;DHT22;11536;50.860;4.286;2023-07-28T01:05:05;19.20;99.90
22738;DHT22;11536;50.860;4.286;2023-07-28T01:10:13;19.20;99.90
22738;DHT22;11536;50.860;4.286;2023-07-28T01:12:40;19.20;99.90
22738;DHT22;11536;50.860;4.286;2023-07-28T01:15:06;19.20;99.90
22738;DHT22;11536;50.860;4.286;2023-07-28T01:17:33;19.20;99.90
22738;DHT22;11536;50.860;4.286;2023-07-28T01:19:59;19.20;99.90
22738;DHT22;11536;50.860;4.286;2023-07-28T01:22:47;19.20;99.90
22738;DHT22;11536;50.860;4.286;2023-07-28T01:27:55;19.30;99.90
22738;DHT22;11536;50.860;4.286;2023-07-28T01:30:21;19.20;99.90
22738;DHT22;11536;50.860;4.286;2023-07-28T01:32:51;19.20;99.90
22738;DHT22;11536;50.860;4.286;2023-07-28T01:35:19;19.20;99.90
22738;DHT22;11536;50.860;4.286;2023-07-28T01:37:44;19.30;99.90
22738;DHT22;11536;50.860;4.286;2023-07-28T01:40:10;19.30;99.90
22738;DHT22;11536;50.860;4.286;2023-07-28T01:42:36;19.30;99.90
22738;DHT22;11536;50.860;4.286;2023-07-28T01:45:02;19.30;99.90
22738;DHT22;11536;50.860;4.286;2023-07-28T01:47:28;19.30;99.90
22738;DHT22;11536;50.860;4.286;2023-07-28T01:49:54;19.30;99.90
22738;DHT22;11536;50.860;4.286;2023-07-28T01:52:20;19.30;99.90
22738;DHT22;11536;50.860;4.286;2023-07-28T01:54:47;19.30;99.90
22738;DHT22;11536;50.860;4.286;2023-07-28T01:57:12;19.30;99.90
22738;DHT22;11536;50.860;4.286;2023-07-28T01:59:38;19.30;99.90
22738;DHT22;11536;50.860;4.286;2023-07-28T02:02:03;19.40;99.90
22738;DHT22;11536;50.860;4.286;2023-07-28T02:04:29;19.30;99.90
22738;DHT22;11536;50.860;4.286;2023-07-28T02:06:54;19.40;99.90
22738;DHT22;11536;50.860;4.286;2023-07-28T02:09:20;19.40;99.90
22738;DHT22;11536;50.860;4.286;2023-07-28T02:11:45;19.40;99.90
22738;DHT22;11536;50.860;4.286;2023-07-28T02:14:11;19.30;99.90
22738;DHT22;11536;50.860;4.286;2023-07-28T02:16:36;19.40;99.90
22738;DHT22;11536;50.860;4.286;2023-07-28T02:19:02;19.40;99.90
22738;DHT22;11536;50.860;4.286;2023-07-28T02:21:28;19.40;99.90
22738;DHT22;11536;50.860;4.286;2023-07-28T02:23:53;19.40;99.90
22738;DHT22;11536;50.860;4.286;2023-07-28T02:26:19;19.40;99.90
22738;DHT22;11536;50.860;4.286;2023-07-28T02:28:44;19.40;99.90
22738;DHT22;11536;50.860;4.286;2023-07-28T02:31:10;19.40;99.90
22738;DHT22;11536;50.860;4.286;2023-07-28T02:33:35;19.40;99.90
22738;DHT22;11536;50.860;4.286;2023-07-28T02:36:03;19.40;99.90
22738;DHT22;11536;50.860;4.286;2023-07-28T02:38:29;19.40;99.90
22738;DHT22;11536;50.860;4.286;2023-07-28T02:40:54;19.40;99.90
22738;DHT22;11536;50.860;4.286;2023-07-28T02:43:20;19.40;99.90
22738;DHT22;11536;50.860;4.286;2023-07-28T02:45:54;19.40;99.90
22738;DHT22;11536;50.860;4.286;2023-07-28T02:48:20;19.40;99.90
22738;DHT22;11536;50.860;4.286;2023-07-28T02:50:47;19.40;99.90
22738;DHT22;11536;50.860;4.286;2023-07-28T02:53:13;19.40;99.90
22738;DHT22;11536;50.860;4.286;2023-07-28T02:55:46;19.40;99.90
22738;DHT22;11536;50.860;4.286;2023-07-28T02:58:13;19.40;99.90
22738;DHT22;11536;50.860;4.286;2023-07-28T03:00:40;19.30;99.90
22738;DHT22;11536;50.860;4.286;2023-07-28T03:03:07;19.40;99.90
22738;DHT22;11536;50.860;4.286;2023-07-28T03:05:32;19.40;99.90
22738;DHT22;11536;50.860;4.286;2023-07-28T03:07:59;19.40;99.90
22738;DHT22;11536;50.860;4.286;2023-07-28T03:10:25;19.40;99.90
22738;DHT22;11536;50.860;4.286;2023-07-28T03:12:50;19.40;99.90
22738;DHT22;11536;50.860;4.286;2023-07-28T03:15:16;19.40;99.90
22738;DHT22;11536;50.860;4.286;2023-07-28T03:17:42;19.40;99.90
22738;DHT22;11536;50.860;4.286;2023-07-28T03:20:08;19.40;99.90
22738;DHT22;11536;50.860;4.286;2023-07-28T03:22:33;19.40;99.90
22738;DHT22;11536;50.860;4.286;2023-07-28T03:24:59;19.30;99.90
22738;DHT22;11536;50.860;4.286;2023-07-28T03:27:24;19.30;99.90
22738;DHT22;11536;50.860;4.286;2023-07-28T03:29:51;19.30;99.90
22738;DHT22;11536;50.860;4.286;2023-07-28T03:32:16;19.30;99.90
22738;DHT22;11536;50.860;4.286;2023-07-28T03:34:42;19.30;99.90
22738;DHT22;11536;50.860;4.286;2023-07-28T03:37:08;19.30;99.90
22738;DHT22;11536;50.860;4.286;2023-07-28T03:39:34;19.40;99.90
22738;DHT22;11536;50.860;4.286;2023-07-28T03:41:59;19.30;99.90
22738;DHT22;11536;50.860;4.286;2023-07-28T03:44:25;19.40;99.90
22738;DHT22;11536;50.860;4.286;2023-07-28T03:46:51;19.30;99.90
22738;DHT22;11536;50.860;4.286;2023-07-28T03:49:17;19.30;99.90
22738;DHT22;11536;50.860;4.286;2023-07-28T03:51:42;19.40;99.90
22738;DHT22;11536;50.860;4.286;2023-07-28T03:54:08;19.30;99.90
22738;DHT22;11536;50.860;4.286;2023-07-28T03:56:33;19.40;99.90
22738;DHT22;11536;50.860;4.286;2023-07-28T03:58:59;19.40;99.90
22738;DHT22;11536;50.860;4.286;2023-07-28T04:01:25;19.40;99.90
22738;DHT22;11536;50.860;4.286;2023-07-28T04:03:50;19.40;99.90
22738;DHT22;11536;50.860;4.286;2023-07-28T04:06:16;19.40;99.90
22738;DHT22;11536;50.860;4.286;2023-07-28T04:08:42;19.40;99.90
22738;DHT22;11536;50.860;4.286;2023-07-28T04:11:07;19.40;99.90
22738;DHT22;11536;50.860;4.286;2023-07-28T04:13:34;19.40;99.90
22738;DHT22;11536;50.860;4.286;2023-07-28T04:16:00;19.40;99.90
22738;DHT22;11536;50.860;4.286;2023-07-28T04:18:26;19.40;99.90
22738;DHT22;11536;50.860;4.286;2023-07-28T04:20:51;19.40;99.90
22738;DHT22;11536;50.860;4.286;2023-07-28T04:23:17;19.40;99.90
22738;DHT22;11536;50.860;4.286;2023-07-28T04:25:43;19.40;99.90
22738;DHT22;11536;50.860;4.286;2023-07-28T04:28:08;19.40;99.90
22738;DHT22;11536;50.860;4.286;2023-07-28T04:30:34;19.40;99.90
22738;DHT22;11536;50.860;4.286;2023-07-28T04:33:00;19.40;99.90
22738;DHT22;11536;50.860;4.286;2023-07-28T04:35:25;19.40;99.90
22738;DHT22;11536;50.860;4.286;2023-07-28T04:37:51;19.40;99.90
22738;DHT22;11536;50.860;4.286;2023-07-28T04:40:16;19.40;99.90
22738;DHT22;11536;50.860;4.286;2023-07-28T04:42:42;19.40;99.90
22738;DHT22;11536;50.860;4.286;2023-07-28T04:45:08;19.40;99.90
22738;DHT22;11536;50.860;4.286;2023-07-28T04:47:34;19.40;99.90
22738;DHT22;11536;50.860;4.286;2023-07-28T04:49:59;19.40;99.90
22738;DHT22;11536;50.860;4.286;2023-07-28T04:52:25;19.40;99.90
22738;DHT22;11536;50.860;4.286;2023-07-28T04:54:50;19.40;99.90
22738;DHT22;11536;50.860;4.286;2023-07-28T04:57:16;19.40;99.90
22738;DHT22;11536;50.860;4.286;2023-07-28T04:59:43;19.40;99.90
22738;DHT22;11536;50.860;4.286;2023-07-28T05:02:09;19.40;99.90
22738;DHT22;11536;50.860;4.286;2023-07-28T05:04:34;19.40;99.90
22738;DHT22;11536;50.860;4.286;2023-07-28T05:07:02;19.40;99.90
22738;DHT22;11536;50.860;4.286;2023-07-28T05:09:28;19.40;99.90
22738;DHT22;11536;50.860;4.286;2023-07-28T05:11:54;19.40;99.90
22738;DHT22;11536;50.860;4.286;2023-07-28T05:14:20;19.40;99.90
22738;DHT22;11536;50.860;4.286;2023-07-28T05:16:46;19.40;99.90
22738;DHT22;11536;50.860;4.286;2023-07-28T05:19:12;19.40;99.90
22738;DHT22;11536;50.860;4.286;2023-07-28T05:21:38;19.40;99.90
22738;DHT22;11536;50.860;4.286;2023-07-28T06:23:48;18.10;99.90
22738;DHT22;11536;50.860;4.286;2023-07-28T06:26:14;19.40;99.90
22738;DHT22;11536;50.860;4.286;2023-07-28T06:28:39;19.40;99.90
22738;DHT22;11536;50.860;4.286;2023-07-28T06:31:05;19.50;99.90
22738;DHT22;11536;50.860;4.286;2023-07-28T06:33:31;19.50;99.90
22738;DHT22;11536;50.860;4.286;2023-07-28T06:35:57;19.50;99.90
22738;DHT22;11536;50.860;4.286;2023-07-28T06:38:22;19.60;99.90
22738;DHT22;11536;50.860;4.286;2023-07-28T06:40:48;19.50;99.90
22738;DHT22;11536;50.860;4.286;2023-07-28T06:43:14;19.60;99.90
22738;DHT22;11536;50.860;4.286;2023-07-28T06:45:39;19.60;99.90
22738;DHT22;11536;50.860;4.286;2023-07-28T06:48:05;19.60;99.90
22738;DHT22;11536;50.860;4.286;2023-07-28T06:50:30;19.60;99.90
22738;DHT22;11536;50.860;4.286;2023-07-28T06:52:57;19.70;99.90
22738;DHT22;11536;50.860;4.286;2023-07-28T06:55:23;19.70;99.90
22738;DHT22;11536;50.860;4.286;2023-07-28T06:57:49;19.80;99.90
22738;DHT22;11536;50.860;4.286;2023-07-28T07:00:15;19.80;99.90
22738;DHT22;11536;50.860;4.286;2023-07-28T07:02:41;19.90;99.90
22738;DHT22;11536;50.860;4.286;2023-07-28T07:05:06;19.90;99.90
22738;DHT22;11536;50.860;4.286;2023-07-28T07:07:33;19.90;99.90
22738;DHT22;11536;50.860;4.286;2023-07-28T07:09:58;19.90;99.90
22738;DHT22;11536;50.860;4.286;2023-07-28T07:12:24;19.90;99.90
22738;DHT22;11536;50.860;4.286;2023-07-28T07:14:51;20.00;99.90
22738;DHT22;11536;50.860;4.286;2023-07-28T07:17:16;20.00;99.90
22738;DHT22;11536;50.860;4.286;2023-07-28T07:19:42;20.00;99.90
22738;DHT22;11536;50.860;4.286;2023-07-28T07:22:08;20.10;99.90
22738;DHT22;11536;50.860;4.286;2023-07-28T07:24:34;20.20;99.90
22738;DHT22;11536;50.860;4.286;2023-07-28T07:26:59;20.10;99.90
22738;DHT22;11536;50.860;4.286;2023-07-28T07:29:25;20.20;99.90
22738;DHT22;11536;50.860;4.286;2023-07-28T07:31:51;20.20;99.90
22738;DHT22;11536;50.860;4.286;2023-07-28T07:34:20;20.30;99.90
22738;DHT22;11536;50.860;4.286;2023-07-28T07:36:47;20.20;99.90
22738;DHT22;11536;50.860;4.286;2023-07-28T07:39:13;20.30;99.90
22738;DHT22;11536;50.860;4.286;2023-07-28T07:41:38;20.20;99.90
22738;DHT22;11536;50.860;4.286;2023-07-28T07:44:04;20.30;99.90
22738;DHT22;11536;50.860;4.286;2023-07-28T07:46:30;20.30;99.90
22738;DHT22;11536;50.860;4.286;2023-07-28T07:48:56;20.30;99.90
22738;DHT22;11536;50.860;4.286;2023-07-28T07:51:21;20.30;99.90
22738;DHT22;11536;50.860;4.286;2023-07-28T07:53:47;20.30;99.90
22738;DHT22;11536;50.860;4.286;2023-07-28T07:56:12;20.30;99.90
22738;DHT22;11536;50.860;4.286;2023-07-28T07:58:38;20.30;99.90
22738;DHT22;11536;50.860;4.286;2023-07-28T08:01:04;20.30;99.90
22738;DHT22;11536;50.860;4.286;2023-07-28T08:03:29;20.30;99.90
22738;DHT22;11536;50.860;4.286;2023-07-28T08:05:55;20.30;99.90
22738;DHT22;11536;50.860;4.286;2023-07-28T08:08:21;20.40;99.90
22738;DHT22;11536;50.860;4.286;2023-07-28T08:10:47;20.40;99.90
22738;DHT22;11536;50.860;4.286;2023-07-28T08:13:14;20.40;99.90
22738;DHT22;11536;50.860;4.286;2023-07-28T08:15:40;20.40;99.90
22738;DHT22;11536;50.860;4.286;2023-07-28T08:18:06;20.50;99.90
22738;DHT22;11536;50.860;4.286;2023-07-28T08:20:32;20.40;99.90
22738;DHT22;11536;50.860;4.286;2023-07-28T08:22:58;20.40;99.90
22738;DHT22;11536;50.860;4.286;2023-07-28T08:25:23;20.50;99.90
22738;DHT22;11536;50.860;4.286;2023-07-28T08:27:49;20.50;99.90
22738;DHT22;11536;50.860;4.286;2023-07-28T08:30:15;20.60;99.90
22738;DHT22;11536;50.860;4.286;2023-07-28T08:32:41;20.60;99.90
22738;DHT22;11536;50.860;4.286;2023-07-28T08:35:08;20.60;99.90
22738;DHT22;11536;50.860;4.286;2023-07-28T08:37:34;20.60;99.90
22738;DHT22;11536;50.860;4.286;2023-07-28T08:39:59;20.60;99.90
22738;DHT22;11536;50.860;4.286;2023-07-28T08:42:25;20.60;99.90
22738;DHT22;11536;50.860;4.286;2023-07-28T08:44:51;20.70;99.90
22738;DHT22;11536;50.860;4.286;2023-07-28T08:47:19;20.70;99.90
22738;DHT22;11536;50.860;4.286;2023-07-28T08:49:45;20.70;99.90
22738;DHT22;11536;50.860;4.286;2023-07-28T08:52:12;20.70;99.90
22738;DHT22;11536;50.860;4.286;2023-07-28T08:54:39;20.60;99.90
22738;DHT22;11536;50.860;4.286;2023-07-28T08:57:05;20.70;99.90
22738;DHT22;11536;50.860;4.286;2023-07-28T08:59:31;20.70;99.90
22738;DHT22;11536;50.860;4.286;2023-07-28T09:01:57;20.60;99.90
22738;DHT22;11536;50.860;4.286;2023-07-28T09:04:27;20.70;99.90
22738;DHT22;11536;50.860;4.286;2023-07-28T09:06:52;20.70;99.90
22738;DHT22;11536;50.860;4.286;2023-07-28T09:09:22;20.70;99.90
22738;DHT22;11536;50.860;4.286;2023-07-28T09:11:53;20.70;99.90
22738;DHT22;11536;50.860;4.286;2023-07-28T09:14:21;20.70;99.90
22738;DHT22;11536;50.860;4.286;2023-07-28T09:16:49;20.60;99.90
22738;DHT22;11536;50.860;4.286;2023-07-28T09:19:15;20.70;99.90
22738;DHT22;11536;50.860;4.286;2023-07-28T09:21:43;20.70;99.90
22738;DHT22;11536;50.860;4.286;2023-07-28T09:24:13;20.70;99.90
22738;DHT22;11536;50.860;4.286;2023-07-28T09:26:40;20.70;99.90
22738;DHT22;11536;50.860;4.286;2023-07-28T09:29:17;20.70;99.90
22738;DHT22;11536;50.860;4.286;2023-07-28T09:31:44;20.70;99.90
22738;DHT22;11536;50.860;4.286;2023-07-28T09:34:10;20.70;99.90
22738;DHT22;11536;50.860;4.286;2023-07-28T09:36:37;20.70;99.90
22738;DHT22;11536;50.860;4.286;2023-07-28T09:39:06;20.70;99.90
22738;DHT22;11536;50.860;4.286;2023-07-28T09:41:35;20.80;99.90
22738;DHT22;11536;50.860;4.286;2023-07-28T09:44:02;20.80;99.90
22738;DHT22;11536;50.860;4.286;2023-07-28T09:46:28;20.80;99.90
22738;DHT22;11536;50.860;4.286;2023-07-28T09:48:57;20.80;99.90
22738;DHT22;11536;50.860;4.286;2023-07-28T09:51:29;20.90;99.90
22738;DHT22;11536;50.860;4.286;2023-07-28T09:54:12;20.90;99.90
22738;DHT22;11536;50.860;4.286;2023-07-28T09:56:44;20.90;99.90
22738;DHT22;11536;50.860;4.286;2023-07-28T09:59:13;20.90;99.90
22738;DHT22;11536;50.860;4.286;2023-07-28T10:01:43;20.90;99.90
22738;DHT22;11536;50.860;4.286;2023-07-28T10:04:10;20.90;99.90
22738;DHT22;11536;50.860;4.286;2023-07-28T10:06:36;20.80;99.90
22738;DHT22;11536;50.860;4.286;2023-07-28T10:09:04;20.80;99.90
22738;DHT22;11536;50.860;4.286;2023-07-28T10:11:31;20.90;99.90
22738;DHT22;11536;50.860;4.286;2023-07-28T10:13:57;21.00;99.90
22738;DHT22;11536;50.860;4.286;2023-07-28T10:16:52;21.00;99.90
22738;DHT22;11536;50.860;4.286;2023-07-28T10:19:20;21.00;99.90
22738;DHT22;11536;50.860;4.286;2023-07-28T10:21:46;21.00;99.90
22738;DHT22;11536;50.860;4.286;2023-07-28T10:24:12;21.00;99.90
22738;DHT22;11536;50.860;4.286;2023-07-28T10:26:40;21.10;99.90
22738;DHT22;11536;50.860;4.286;2023-07-28T10:29:14;21.10;99.90
22738;DHT22;11536;50.860;4.286;2023-07-28T10:34:17;21.20;99.90
22738;DHT22;11536;50.860;4.286;2023-07-28T10:36:44;21.10;99.90
22738;DHT22;11536;50.860;4.286;2023-07-28T10:39:17;21.20;99.90
22738;DHT22;11536;50.860;4.286;2023-07-28T10:42:07;21.20;99.90
22738;DHT22;11536;50.860;4.286;2023-07-28T10:44:34;21.20;99.90
22738;DHT22;11536;50.860;4.286;2023-07-28T10:47:00;21.30;99.90
22738;DHT22;11536;50.860;4.286;2023-07-28T10:49:27;21.30;99.90
22738;DHT22;11536;50.860;4.286;2023-07-28T10:51:53;21.30;99.90
22738;DHT22;11536;50.860;4.286;2023-07-28T10:54:18;21.40;99.90
22738;DHT22;11536;50.860;4.286;2023-07-28T10:56:46;21.30;99.90
22738;DHT22;11536;50.860;4.286;2023-07-28T10:59:12;21.30;99.90
22738;DHT22;11536;50.860;4.286;2023-07-28T11:01:39;21.30;99.90
22738;DHT22;11536;50.860;4.286;2023-07-28T11:06:45;21.40;99.90
22738;DHT22;11536;50.860;4.286;2023-07-28T11:09:12;21.40;99.90
22738;DHT22;11536;50.860;4.286;2023-07-28T11:11:40;21.40;99.90
22738;DHT22;11536;50.860;4.286;2023-07-28T11:14:07;21.30;99.90
22738;DHT22;11536;50.860;4.286;2023-07-28T11:16:34;21.40;99.90
22738;DHT22;11536;50.860;4.286;2023-07-28T11:19:02;21.40;99.90
22738;DHT22;11536;50.860;4.286;2023-07-28T11:21:28;21.40;99.90
22738;DHT22;11536;50.860;4.286;2023-07-28T11:23:54;21.40;99.90
22738;DHT22;11536;50.860;4.286;2023-07-28T11:26:21;21.40;99.90
22738;DHT22;11536;50.860;4.286;2023-07-28T11:28:47;21.50;99.90
22738;DHT22;11536;50.860;4.286;2023-07-28T11:31:13;21.50;99.90
22738;DHT22;11536;50.860;4.286;2023-07-28T11:33:39;21.60;99.90
22738;DHT22;11536;50.860;4.286;2023-07-28T11:36:05;21.60;99.90
22738;DHT22;11536;50.860;4.286;2023-07-28T11:38:32;21.60;99.90
22738;DHT22;11536;50.860;4.286;2023-07-28T11:40:58;21.60;99.90
22738;DHT22;11536;50.860;4.286;2023-07-28T11:43:25;21.60;99.90
22738;DHT22;11536;50.860;4.286;2023-07-28T11:45:51;21.60;99.90
22738;DHT22;11536;50.860;4.286;2023-07-28T11:48:17;21.60;99.90
22738;DHT22;11536;50.860;4.286;2023-07-28T11:50:43;21.60;99.90
22738;DHT22;11536;50.860;4.286;2023-07-28T11:53:10;21.60;99.90
22738;DHT22;11536;50.860;4.286;2023-07-28T11:55:38;21.70;99.90
22738;DHT22;11536;50.860;4.286;2023-07-28T11:58:05;21.70;99.90
22738;DHT22;11536;50.860;4.286;2023-07-28T12:00:32;21.70;99.90
22738;DHT22;11536;50.860;4.286;2023-07-28T12:03:09;21.80;99.90
22738;DHT22;11536;50.860;4.286;2023-07-28T12:05:36;21.80;99.90
22738;DHT22;11536;50.860;4.286;2023-07-28T12:08:03;21.80;99.90
22738;DHT22;11536;50.860;4.286;2023-07-28T12:10:29;21.90;99.90
22738;DHT22;11536;50.860;4.286;2023-07-28T12:12:55;22.10;99.90
22738;DHT22;11536;50.860;4.286;2023-07-28T12:15:28;22.20;99.90
22738;DHT22;11536;50.860;4.286;2023-07-28T12:18:12;22.40;99.90
22738;DHT22;11536;50.860;4.286;2023-07-28T12:20:45;22.60;99.90
22738;DHT22;11536;50.860;4.286;2023-07-28T12:23:17;22.70;99.90
22738;DHT22;11536;50.860;4.286;2023-07-28T12:25:44;22.90;99.90
22738;DHT22;11536;50.860;4.286;2023-07-28T12:28:10;23.00;99.90
22738;DHT22;11536;50.860;4.286;2023-07-28T12:30:36;23.10;99.90
22738;DHT22;11536;50.860;4.286;2023-07-28T12:33:03;23.10;99.90
22738;DHT22;11536;50.860;4.286;2023-07-28T12:35:30;23.10;99.90
22738;DHT22;11536;50.860;4.286;2023-07-28T12:37:58;23.20;99.90
22738;DHT22;11536;50.860;4.286;2023-07-28T12:40:26;23.30;99.90
22738;DHT22;11536;50.860;4.286;2023-07-28T12:42:51;23.20;99.90
22738;DHT22;11536;50.860;4.286;2023-07-28T12:45:17;23.20;99.90
22738;DHT22;11536;50.860;4.286;2023-07-28T12:47:43;23.30;99.90
22738;DHT22;11536;50.860;4.286;2023-07-28T12:50:09;23.20;99.90
22738;DHT22;11536;50.860;4.286;2023-07-28T12:52:35;23.20;99.90
22738;DHT22;11536;50.860;4.286;2023-07-28T12:55:01;23.10;99.90
22738;DHT22;11536;50.860;4.286;2023-07-28T12:57:27;23.20;99.90
22738;DHT22;11536;50.860;4.286;2023-07-28T12:59:53;23.20;99.90
22738;DHT22;11536;50.860;4.286;2023-07-28T13:02:18;23.10;99.90
22738;DHT22;11536;50.860;4.286;2023-07-28T13:04:44;23.10;99.90
22738;DHT22;11536;50.860;4.286;2023-07-28T13:07:10;23.20;99.90
22738;DHT22;11536;50.860;4.286;2023-07-28T13:09:35;23.10;99.90
22738;DHT22;11536;50.860;4.286;2023-07-28T13:12:01;23.10;99.90
22738;DHT22;11536;50.860;4.286;2023-07-28T13:14:26;23.10;99.90
22738;DHT22;11536;50.860;4.286;2023-07-28T13:16:52;23.10;99.90
22738;DHT22;11536;50.860;4.286;2023-07-28T13:19:18;23.10;99.90
22738;DHT22;11536;50.860;4.286;2023-07-28T13:21:43;23.10;99.90
22738;DHT22;11536;50.860;4.286;2023-07-28T13:24:09;23.00;99.90
22738;DHT22;11536;50.860;4.286;2023-07-28T13:26:34;23.00;99.90
22738;DHT22;11536;50.860;4.286;2023-07-28T13:29:01;23.00;99.90
22738;DHT22;11536;50.860;4.286;2023-07-28T13:31:28;23.00;99.90
22738;DHT22;11536;50.860;4.286;2023-07-28T13:33:54;23.00;99.90
22738;DHT22;11536;50.860;4.286;2023-07-28T13:36:19;23.00;99.90
22738;DHT22;11536;50.860;4.286;2023-07-28T13:38:45;23.00;99.90
22738;DHT22;11536;50.860;4.286;2023-07-28T13:41:11;23.00;99.90
22738;DHT22;11536;50.860;4.286;2023-07-28T13:43:37;23.10;99.90
22738;DHT22;11536;50.860;4.286;2023-07-28T13:46:04;23.10;99.90
22738;DHT22;11536;50.860;4.286;2023-07-28T13:48:32;23.10;99.90
22738;DHT22;11536;50.860;4.286;2023-07-28T13:50:58;23.10;99.90
22738;DHT22;11536;50.860;4.286;2023-07-28T13:53:25;23.20;99.90
22738;DHT22;11536;50.860;4.286;2023-07-28T13:55:50;23.10;99.90
22738;DHT22;11536;50.860;4.286;2023-07-28T13:58:16;23.10;99.90
22738;DHT22;11536;50.860;4.286;2023-07-28T14:00:42;23.10;99.90
22738;DHT22;11536;50.860;4.286;2023-07-28T14:03:07;23.10;99.90
22738;DHT22;11536;50.860;4.286;2023-07-28T14:05:33;23.00;99.90
22738;DHT22;11536;50.860;4.286;2023-07-28T14:07:59;23.00;99.90
22738;DHT22;11536;50.860;4.286;2023-07-28T14:10:24;23.00;99.90
22738;DHT22;11536;50.860;4.286;2023-07-28T14:12:50;22.90;99.90
22738;DHT22;11536;50.860;4.286;2023-07-28T14:15:16;23.00;99.90
22738;DHT22;11536;50.860;4.286;2023-07-28T14:17:41;22.90;99.90
22738;DHT22;11536;50.860;4.286;2023-07-28T14:20:07;23.00;99.90
22738;DHT22;11536;50.860;4.286;2023-07-28T14:22:34;23.00;99.90
22738;DHT22;11536;50.860;4.286;2023-07-28T14:25:00;23.00;99.90
22738;DHT22;11536;50.860;4.286;2023-07-28T14:27:26;23.00;99.90
22738;DHT22;11536;50.860;4.286;2023-07-28T14:29:51;23.10;99.90
22738;DHT22;11536;50.860;4.286;2023-07-28T14:32:17;23.20;99.90
22738;DHT22;11536;50.860;4.286;2023-07-28T14:34:42;23.30;99.90
22738;DHT22;11536;50.860;4.286;2023-07-28T14:37:08;23.40;99.90
22738;DHT22;11536;50.860;4.286;2023-07-28T14:39:34;23.50;99.90
22738;DHT22;11536;50.860;4.286;2023-07-28T14:42:00;23.60;99.90
22738;DHT22;11536;50.860;4.286;2023-07-28T14:44:26;23.70;99.90
22738;DHT22;11536;50.860;4.286;2023-07-28T14:46:51;23.70;99.90
22738;DHT22;11536;50.860;4.286;2023-07-28T14:49:17;23.70;99.90
22738;DHT22;11536;50.860;4.286;2023-07-28T14:51:43;23.70;99.90
22738;DHT22;11536;50.860;4.286;2023-07-28T14:54:08;23.70;99.90
22738;DHT22;11536;50.860;4.286;2023-07-28T14:56:34;23.80;99.90
22738;DHT22;11536;50.860;4.286;2023-07-28T14:59:00;23.80;99.90
22738;DHT22;11536;50.860;4.286;2023-07-28T15:01:27;23.90;99.90
22738;DHT22;11536;50.860;4.286;2023-07-28T15:03:52;23.90;99.90
22738;DHT22;11536;50.860;4.286;2023-07-28T15:06:18;23.90;99.90
22738;DHT22;11536;50.860;4.286;2023-07-28T15:08:44;23.80;99.90
22738;DHT22;11536;50.860;4.286;2023-07-28T15:11:09;23.80;99.90
22738;DHT22;11536;50.860;4.286;2023-07-28T15:13:35;23.80;99.90
22738;DHT22;11536;50.860;4.286;2023-07-28T15:16:01;23.80;99.90
22738;DHT22;11536;50.860;4.286;2023-07-28T15:18:30;23.80;99.90
22738;DHT22;11536;50.860;4.286;2023-07-28T15:20:55;23.80;99.90
22738;DHT22;11536;50.860;4.286;2023-07-28T15:23:22;23.90;99.90
22738;DHT22;11536;50.860;4.286;2023-07-28T15:25:48;23.90;99.90
22738;DHT22;11536;50.860;4.286;2023-07-28T15:28:14;23.90;99.90
22738;DHT22;11536;50.860;4.286;2023-07-28T15:30:53;23.90;99.90
22738;DHT22;11536;50.860;4.286;2023-07-28T15:33:32;23.90;99.90
22738;DHT22;11536;50.860;4.286;2023-07-28T15:35:57;24.00;99.90
22738;DHT22;11536;50.860;4.286;2023-07-28T15:38:23;24.00;99.90
22738;DHT22;11536;50.860;4.286;2023-07-28T15:40:49;24.00;99.90
22738;DHT22;11536;50.860;4.286;2023-07-28T15:43:14;24.10;99.90
22738;DHT22;11536;50.860;4.286;2023-07-28T15:45:40;24.10;99.90
22738;DHT22;11536;50.860;4.286;2023-07-28T15:48:06;24.10;99.90
22738;DHT22;11536;50.860;4.286;2023-07-28T15:50:35;24.10;99.90
22738;DHT22;11536;50.860;4.286;2023-07-28T15:53:00;24.10;99.90
22738;DHT22;11536;50.860;4.286;2023-07-28T15:55:26;24.10;99.90
22738;DHT22;11536;50.860;4.286;2023-07-28T15:57:51;24.10;99.90
22738;DHT22;11536;50.860;4.286;2023-07-28T16:00:17;24.10;99.90
22738;DHT22;11536;50.860;4.286;2023-07-28T16:02:43;24.10;99.90
22738;DHT22;11536;50.860;4.286;2023-07-28T16:05:12;24.10;99.90
22738;DHT22;11536;50.860;4.286;2023-07-28T16:07:38;24.10;99.90
22738;DHT22;11536;50.860;4.286;2023-07-28T16:10:05;24.10;99.90
22738;DHT22;11536;50.860;4.286;2023-07-28T16:12:31;24.10;99.90
22738;DHT22;11536;50.860;4.286;2023-07-28T16:14:56;24.10;99.90
22738;DHT22;11536;50.860;4.286;2023-07-28T16:17:22;24.10;99.90
22738;DHT22;11536;50.860;4.286;2023-07-28T16:19:49;24.20;99.90
22738;DHT22;11536;50.860;4.286;2023-07-28T16:22:15;24.10;99.90
22738;DHT22;11536;50.860;4.286;2023-07-28T16:24:45;24.10;99.90
22738;DHT22;11536;50.860;4.286;2023-07-28T16:27:11;24.10;99.90
22738;DHT22;11536;50.860;4.286;2023-07-28T16:29:37;24.00;99.90
22738;DHT22;11536;50.860;4.286;2023-07-28T16:32:03;24.00;99.90
22738;DHT22;11536;50.860;4.286;2023-07-28T16:34:28;24.00;99.90
22738;DHT22;11536;50.860;4.286;2023-07-28T16:36:54;24.00;99.90